createdAt,value
2018-02-02T00:00:30.972Z,20.73
2018-02-02T00:02:58.696Z,22.67
2018-02-02T00:05:27.033Z,14.87
2018-02-02T00:07:54.796Z,15.57
2018-02-02T00:10:22.333Z,18.33
2018-02-02T00:12:50.045Z,21.73
2018-02-02T00:15:17.808Z,19.53
2018-02-02T00:17:46.220Z,19.73
2018-02-02T00:20:13.946Z,18.33
2018-02-02T00:22:41.557Z,17.90
2018-02-02T00:25:09.301Z,19.67
2018-02-02T00:27:36.844Z,24.10
2018-02-02T00:30:04.513Z,16.97
2018-02-02T00:32:32.172Z,18.17
2018-02-02T00:34:59.628Z,19.40
2018-02-02T00:37:27.902Z,19.50
2018-02-02T00:39:55.477Z,28.07
2018-02-02T00:42:24.009Z,18.20
2018-02-02T00:44:51.527Z,22.30
2018-02-02T00:47:19.146Z,23.10
2018-02-02T00:49:46.702Z,21.00
2018-02-02T00:52:14.232Z,16.67
2018-02-02T00:54:41.832Z,19.23
2018-02-02T00:57:09.354Z,21.20
2018-02-02T00:59:36.838Z,15.43
2018-02-02T01:02:04.378Z,24.37
2018-02-02T01:04:31.879Z,15.57
2018-02-02T01:07:00.241Z,19.47
2018-02-02T01:09:27.703Z,18.27
2018-02-02T01:11:55.190Z,20.17
2018-02-02T01:14:23.418Z,18.50
2018-02-02T01:16:51.040Z,19.93
2018-02-02T01:19:19.315Z,19.90
2018-02-02T01:21:47.014Z,17.27
2018-02-02T01:24:14.779Z,17.50
2018-02-02T01:26:42.540Z,15.03
2018-02-02T01:29:10.234Z,22.07
2018-02-02T01:31:37.764Z,17.83
2018-02-02T01:34:05.278Z,16.53
2018-02-02T01:36:33.531Z,15.83
2018-02-02T01:39:01.008Z,19.17
2018-02-02T01:41:28.513Z,16.97
2018-02-02T01:43:55.984Z,16.90
2018-02-02T01:46:23.461Z,19.77
2018-02-02T01:48:51.768Z,18.93
2018-02-02T01:51:20.015Z,16.63
2018-02-02T01:53:47.497Z,17.23
2018-02-02T01:56:15.047Z,21.70
2018-02-02T01:58:42.530Z,16.57
2018-02-02T02:01:10.855Z,17.40
2018-02-02T02:03:38.308Z,22.17
2018-02-02T02:06:06.006Z,16.60
2018-02-02T02:08:33.572Z,16.17
2018-02-02T02:11:01.093Z,17.80
2018-02-02T02:13:28.590Z,14.10
2018-02-02T02:15:56.117Z,15.83
2018-02-02T02:18:24.301Z,15.60
2018-02-02T02:20:51.760Z,19.63
2018-02-02T02:23:19.221Z,18.80
2018-02-02T02:25:46.699Z,17.93
2018-02-02T02:28:14.178Z,14.20
2018-02-02T02:30:42.513Z,12.40
2018-02-02T02:33:09.922Z,19.40
2018-02-02T02:35:38.175Z,17.30
2018-02-02T02:38:05.627Z,19.97
2018-02-02T02:40:33.095Z,21.70
2018-02-02T02:43:00.547Z,17.03
2018-02-02T02:45:28.011Z,17.53
2018-02-02T02:47:56.371Z,16.83
2018-02-02T02:50:23.841Z,17.20
2018-02-02T02:52:51.280Z,18.90
2018-02-02T02:55:18.748Z,20.83
2018-02-02T02:57:46.230Z,12.70
2018-02-02T03:00:14.470Z,23.60
2018-02-02T03:02:41.961Z,15.60
2018-02-02T03:05:10.201Z,19.70
2018-02-02T03:07:37.681Z,17.33
2018-02-02T03:10:05.146Z,13.17
2018-02-02T03:12:32.614Z,18.60
2018-02-02T03:15:00.852Z,15.50
2018-02-02T03:17:28.333Z,18.17
2018-02-02T03:19:55.808Z,18.67
2018-02-02T03:22:24.044Z,27.20
2018-02-02T03:24:51.534Z,16.67
2018-02-02T03:27:20.007Z,20.93
2018-02-02T03:29:47.465Z,19.60
2018-02-02T03:32:14.970Z,17.67
2018-02-02T03:34:42.458Z,16.97
2018-02-02T03:37:09.920Z,21.20
2018-02-02T03:39:37.409Z,27.33
2018-02-02T03:42:04.864Z,19.80
2018-02-02T03:44:32.393Z,22.60
2018-02-02T03:46:59.899Z,22.53
2018-02-02T03:49:28.165Z,20.13
2018-02-02T03:51:55.638Z,17.70
2018-02-02T03:54:23.961Z,19.57
2018-02-02T03:56:51.404Z,21.53
2018-02-02T03:59:18.879Z,22.70
2018-02-02T04:01:46.335Z,21.83
2018-02-02T04:04:13.839Z,22.40
2018-02-02T04:06:42.116Z,22.60
2018-02-02T04:09:10.361Z,23.73
2018-02-02T04:11:37.827Z,21.80
2018-02-02T04:14:05.370Z,22.87
2018-02-02T04:16:32.828Z,14.47
2018-02-02T04:19:00.318Z,21.13
2018-02-02T04:21:28.593Z,17.90
2018-02-02T04:23:56.052Z,16.10
2018-02-02T04:26:23.496Z,21.03
2018-02-02T04:28:50.963Z,14.40
2018-02-02T04:31:19.198Z,13.57
2018-02-02T04:33:46.743Z,15.43
2018-02-02T04:36:15.990Z,17.00
2018-02-02T04:38:43.462Z,17.80
2018-02-02T04:41:10.946Z,13.23
2018-02-02T04:43:39.193Z,16.37
2018-02-02T04:46:06.651Z,18.13
2018-02-02T04:48:34.152Z,16.03
2018-02-02T04:51:01.620Z,15.37
2018-02-02T04:53:29.127Z,15.90
2018-02-02T04:55:56.609Z,15.40
2018-02-02T04:58:24.837Z,16.07
2018-02-02T05:00:52.309Z,16.00
2018-02-02T05:03:19.750Z,16.40
2018-02-02T05:05:47.226Z,16.00
2018-02-02T05:08:14.710Z,15.23
2018-02-02T05:10:42.960Z,14.63
2018-02-02T05:13:10.434Z,15.87
2018-02-02T05:15:37.901Z,16.27
2018-02-02T05:18:06.135Z,18.33
2018-02-02T05:20:33.599Z,15.40
2018-02-02T05:23:01.067Z,14.10
2018-02-02T05:25:28.619Z,18.30
2018-02-02T05:27:56.142Z,19.67
2018-02-02T05:30:23.676Z,18.13
2018-02-02T05:32:51.130Z,23.80
2018-02-02T05:35:19.365Z,21.90
2018-02-02T05:37:46.877Z,20.20
2018-02-02T05:40:15.134Z,20.40
2018-02-02T05:42:42.590Z,20.27
2018-02-02T05:45:10.055Z,21.07
2018-02-02T05:47:37.563Z,22.80
2018-02-02T05:50:05.066Z,23.20
2018-02-02T05:52:32.506Z,23.50
2018-02-02T05:54:59.979Z,27.80
2018-02-02T05:57:27.570Z,26.40
2018-02-02T05:59:55.819Z,27.77
2018-02-02T06:02:23.296Z,29.40
2018-02-02T06:04:51.547Z,30.43
2018-02-02T06:07:19.019Z,29.00
2018-02-02T06:09:47.247Z,29.70
2018-02-02T06:12:14.755Z,25.53
2018-02-02T06:14:43.029Z,29.17
2018-02-02T06:17:10.491Z,32.73
2018-02-02T06:19:37.941Z,25.73
2018-02-02T06:22:05.402Z,29.00
2018-02-02T06:24:33.860Z,28.43
2018-02-02T06:27:01.326Z,28.03
2018-02-02T06:29:28.779Z,24.90
2018-02-02T06:31:56.251Z,27.33
2018-02-02T06:34:23.727Z,28.03
2018-02-02T06:37:06.574Z,27.97
2018-02-02T06:39:34.088Z,35.67
2018-02-02T06:42:01.595Z,35.47
2018-02-02T06:44:29.105Z,28.87
2018-02-02T06:46:56.564Z,33.17
2018-02-02T06:49:24.037Z,27.97
2018-02-02T06:51:52.287Z,31.00
2018-02-02T06:54:19.754Z,32.10
2018-02-02T06:56:47.321Z,30.80
2018-02-02T06:59:15.571Z,33.53
2018-02-02T07:01:43.036Z,30.33
2018-02-02T07:04:10.499Z,30.90
2018-02-02T07:06:37.964Z,33.73
2018-02-02T07:09:05.470Z,32.73
2018-02-02T07:11:32.907Z,28.90
2018-02-02T07:14:01.136Z,31.80
2018-02-02T07:16:28.609Z,27.30
2018-02-02T07:18:56.078Z,21.60
2018-02-02T07:21:23.570Z,26.73
2018-02-02T07:23:51.042Z,24.80
2018-02-02T07:26:18.578Z,27.53
2018-02-02T07:28:46.806Z,27.00
2018-02-02T07:31:14.265Z,25.27
2018-02-02T07:33:41.768Z,22.27
2018-02-02T07:36:10.000Z,23.70
2018-02-02T07:38:37.467Z,28.00
2018-02-02T07:41:04.930Z,24.07
2018-02-02T07:43:32.413Z,24.80
2018-02-02T07:46:00.643Z,24.47
2018-02-02T07:48:28.146Z,29.70
2018-02-02T07:50:56.363Z,27.03
2018-02-02T07:53:23.843Z,31.23
2018-02-02T07:55:51.377Z,21.80
2018-02-02T07:58:18.871Z,30.73
2018-02-02T08:00:51.943Z,28.57
2018-02-02T08:03:19.560Z,26.70
2018-02-02T08:05:47.806Z,26.87
2018-02-02T08:08:15.284Z,29.13
2018-02-02T08:10:42.756Z,31.13
2018-02-02T08:13:11.028Z,27.90
2018-02-02T08:15:39.642Z,29.93
2018-02-02T08:18:07.612Z,26.90
2018-02-02T08:20:35.071Z,29.33
2018-02-02T08:23:02.595Z,39.40
2018-02-02T08:25:31.061Z,28.10
2018-02-02T08:27:58.568Z,28.27
2018-02-02T08:30:26.054Z,29.23
2018-02-02T08:32:53.550Z,28.53
2018-02-02T08:35:20.999Z,26.03
2018-02-02T08:37:48.462Z,27.80
2018-02-02T08:40:16.022Z,27.77
2018-02-02T08:42:43.483Z,23.63
2018-02-02T08:45:11.704Z,25.33
2018-02-02T08:47:39.203Z,18.70
2018-02-02T08:50:06.671Z,21.83
2018-02-02T08:52:34.950Z,24.23
2018-02-02T08:55:02.404Z,24.20
2018-02-02T08:57:29.863Z,23.90
2018-02-02T08:59:57.322Z,21.43
2018-02-02T09:02:24.791Z,18.60
2018-02-02T09:04:53.152Z,16.60
2018-02-02T09:07:20.599Z,17.00
2018-02-02T09:09:48.067Z,16.53
2018-02-02T09:12:15.573Z,16.83
2018-02-02T09:14:43.043Z,18.83
2018-02-02T09:17:10.492Z,15.60
2018-02-02T09:19:37.971Z,18.80
2018-02-02T09:22:04.995Z,16.40
2018-02-02T09:24:32.438Z,17.40
2018-02-02T09:26:59.486Z,15.97
2018-02-02T09:29:26.979Z,14.57
2018-02-02T09:31:54.451Z,13.17
2018-02-02T09:34:21.935Z,14.30
2018-02-02T09:36:49.393Z,12.77
2018-02-02T09:39:17.055Z,15.20
2018-02-02T09:41:44.590Z,15.13
2018-02-02T09:44:12.261Z,15.13
2018-02-02T09:46:39.737Z,13.33
2018-02-02T09:49:07.202Z,14.80
2018-02-02T09:51:34.703Z,11.77
2018-02-02T09:54:02.206Z,15.30
2018-02-02T09:56:29.725Z,10.97
2018-02-02T09:58:57.210Z,14.57
2018-02-02T10:01:24.703Z,14.93
2018-02-02T10:03:52.938Z,12.23
2018-02-02T10:06:20.491Z,11.80
2018-02-02T10:08:48.345Z,12.27
2018-02-02T10:11:15.827Z,12.10
2018-02-02T10:13:43.390Z,13.43
2018-02-02T10:16:10.843Z,14.60
2018-02-02T10:18:38.333Z,14.83
2018-02-02T10:21:05.787Z,17.87
2018-02-02T10:23:33.352Z,14.53
2018-02-02T10:26:00.821Z,12.40
2018-02-02T10:28:29.854Z,10.13
2018-02-02T10:30:57.512Z,12.70
2018-02-02T10:33:25.195Z,10.53
2018-02-02T10:35:52.792Z,10.73
2018-02-02T10:38:21.029Z,10.60
2018-02-02T10:40:48.508Z,9.73
2018-02-02T10:43:15.991Z,12.60
2018-02-02T10:45:43.454Z,10.03
2018-02-02T10:48:11.718Z,12.43
2018-02-02T10:50:39.280Z,11.23
2018-02-02T10:53:06.851Z,10.00
2018-02-02T10:55:35.096Z,13.73
2018-02-02T10:58:02.588Z,11.03
2018-02-02T11:00:36.626Z,12.50
2018-02-02T11:03:09.822Z,11.67
2018-02-02T11:05:37.383Z,11.30
2018-02-02T11:08:05.584Z,14.93
2018-02-02T11:10:33.067Z,11.10
2018-02-02T11:13:01.334Z,9.50
2018-02-02T11:15:28.808Z,10.77
2018-02-02T11:17:56.252Z,12.77
2018-02-02T11:20:23.724Z,11.93
2018-02-02T11:22:51.222Z,12.73
2018-02-02T11:25:18.710Z,12.20
2018-02-02T11:27:46.172Z,9.70
2018-02-02T11:30:13.861Z,16.10
2018-02-02T11:32:41.317Z,15.77
2018-02-02T11:35:08.774Z,19.43
2018-02-02T11:37:36.280Z,16.10
2018-02-02T11:40:03.724Z,19.47
2018-02-02T11:42:32.025Z,21.40
2018-02-02T11:44:59.492Z,21.80
2018-02-02T11:47:27.011Z,18.90
2018-02-02T11:49:55.283Z,25.10
2018-02-02T11:52:23.519Z,22.47
2018-02-02T11:54:51.008Z,24.83
2018-02-02T11:57:18.527Z,29.53
2018-02-02T11:59:46.025Z,28.90
2018-02-02T12:02:13.505Z,22.73
2018-02-02T12:04:41.814Z,26.07
2018-02-02T12:07:09.283Z,29.83
2018-02-02T12:09:36.877Z,26.80
2018-02-02T12:12:04.335Z,31.93
2018-02-02T12:14:31.859Z,26.47
2018-02-02T12:16:59.381Z,30.97
2018-02-02T12:19:26.828Z,32.83
2018-02-02T12:21:55.904Z,30.03
2018-02-02T12:27:40.801Z,30.03
2018-02-02T12:30:13.987Z,27.17
2018-02-02T12:32:47.093Z,29.90
2018-02-02T12:35:19.242Z,33.70
2018-02-02T12:37:46.711Z,31.67
2018-02-02T12:40:14.965Z,29.87
2018-02-02T12:42:42.448Z,32.03
2018-02-02T12:45:10.720Z,34.60
2018-02-02T12:47:38.273Z,33.43
2018-02-02T12:50:07.685Z,31.37
2018-02-02T12:52:35.341Z,34.23
2018-02-02T12:55:03.646Z,34.33
2018-02-02T12:57:31.880Z,34.10
2018-02-02T12:59:59.371Z,30.70
2018-02-02T13:02:27.625Z,33.40
2018-02-02T13:04:55.109Z,33.40
2018-02-02T13:07:23.358Z,31.73
2018-02-02T13:09:51.688Z,31.33
2018-02-02T13:12:19.347Z,28.63
2018-02-02T13:14:46.830Z,19.90
2018-02-02T13:17:14.302Z,21.37
2018-02-02T13:19:41.780Z,17.80
2018-02-02T13:22:09.334Z,19.93
2018-02-02T13:24:37.084Z,17.57
2018-02-02T13:27:04.539Z,19.90
2018-02-02T13:29:32.011Z,16.63
2018-02-02T13:31:59.495Z,16.80
2018-02-02T13:34:27.729Z,15.93
2018-02-02T13:36:55.176Z,14.90
2018-02-02T13:39:22.741Z,16.50
2018-02-02T13:41:50.182Z,12.53
2018-02-02T13:44:17.747Z,15.27
2018-02-02T13:46:46.019Z,14.87
2018-02-02T13:49:13.718Z,17.53
2018-02-02T13:51:41.275Z,13.40
2018-02-02T13:54:08.749Z,11.50
2018-02-02T13:56:36.243Z,18.70
2018-02-02T13:59:03.702Z,11.20
2018-02-02T14:01:31.975Z,12.17
2018-02-02T14:04:00.245Z,10.20
2018-02-02T14:06:28.515Z,11.87
2018-02-02T14:08:56.783Z,10.57
2018-02-02T14:11:24.264Z,13.10
2018-02-02T14:13:52.515Z,14.30
2018-02-02T14:16:19.974Z,12.93
2018-02-02T14:18:47.556Z,17.30
2018-02-02T14:21:15.831Z,14.17
2018-02-02T14:23:44.040Z,13.43
2018-02-02T14:26:11.575Z,16.10
2018-02-02T14:28:39.115Z,20.83
2018-02-02T14:31:06.575Z,15.43
2018-02-02T14:33:34.037Z,12.97
2018-02-02T14:36:02.387Z,13.37
2018-02-02T14:38:29.867Z,18.37
2018-02-02T14:40:57.316Z,14.37
2018-02-02T14:43:24.892Z,17.33
2018-02-02T14:45:53.110Z,16.47
2018-02-02T14:48:20.598Z,14.60
2018-02-02T14:50:48.184Z,20.40
2018-02-02T14:53:15.649Z,17.10
2018-02-02T14:55:43.880Z,13.50
2018-02-02T14:58:11.377Z,13.60
2018-02-02T15:00:38.855Z,13.93
2018-02-02T15:03:07.109Z,10.80
2018-02-02T15:05:35.458Z,18.30
2018-02-02T15:08:02.935Z,13.57
2018-02-02T15:10:30.404Z,12.13
2018-02-02T15:12:58.640Z,10.73
2018-02-02T15:15:26.155Z,17.50
2018-02-02T15:17:54.412Z,14.97
2018-02-02T15:20:21.887Z,17.63
2018-02-02T15:23:05.908Z,16.90
2018-02-02T15:25:33.387Z,14.40
2018-02-02T15:28:01.645Z,17.63
2018-02-02T15:30:29.402Z,15.10
2018-02-02T15:32:56.855Z,14.47
2018-02-02T15:35:24.401Z,19.67
2018-02-02T15:37:51.867Z,16.23
2018-02-02T15:40:19.348Z,20.23
2018-02-02T15:42:46.871Z,16.10
2018-02-02T15:45:14.336Z,17.17
2018-02-02T15:47:42.827Z,13.83
2018-02-02T15:50:10.292Z,14.13
2018-02-02T15:52:37.742Z,8.57
2018-02-02T15:55:05.239Z,16.20
2018-02-02T15:57:33.492Z,7.80
2018-02-02T16:00:00.963Z,9.10
2018-02-02T16:02:28.418Z,8.37
2018-02-02T16:04:55.925Z,5.33
2018-02-02T16:07:23.495Z,10.23
2018-02-02T16:09:50.954Z,6.13
2018-02-02T16:12:18.435Z,6.77
2018-02-02T16:14:45.938Z,5.73
2018-02-02T16:17:14.240Z,9.03
2018-02-02T16:19:41.728Z,10.50
2018-02-02T16:22:09.216Z,10.07
2018-02-02T16:24:36.675Z,8.13
2018-02-02T16:27:04.928Z,9.90
2018-02-02T16:29:32.411Z,10.73
2018-02-02T16:32:00.627Z,8.23
2018-02-02T16:34:28.144Z,10.23
2018-02-02T16:36:56.384Z,12.47
2018-02-02T16:39:23.917Z,9.70
2018-02-02T16:41:51.511Z,10.77
2018-02-02T16:44:19.105Z,8.80
2018-02-02T16:46:47.363Z,9.50
2018-02-02T16:49:15.617Z,8.10
2018-02-02T16:51:43.153Z,9.27
2018-02-02T16:54:10.648Z,14.30
2018-02-02T16:56:38.154Z,15.80
2018-02-02T16:59:05.661Z,9.80
2018-02-02T17:01:33.123Z,10.90
2018-02-02T17:04:00.651Z,9.43
2018-02-02T17:06:28.168Z,8.40
2018-02-02T17:08:56.419Z,15.97
2018-02-02T17:11:23.920Z,9.93
2018-02-02T17:13:52.179Z,11.90
2018-02-02T17:16:19.884Z,14.10
2018-02-02T17:18:47.412Z,11.23
2018-02-02T17:21:15.779Z,13.23
2018-02-02T17:23:43.334Z,16.60
2018-02-02T17:26:10.797Z,11.27
2018-02-02T17:28:38.265Z,16.63
2018-02-02T17:31:06.490Z,12.70
2018-02-02T17:33:33.951Z,11.50
2018-02-02T17:36:01.438Z,15.40
2018-02-02T17:38:28.984Z,13.03
2018-02-02T17:40:56.454Z,11.17
2018-02-02T17:43:23.885Z,11.87
2018-02-02T17:45:51.392Z,11.27
2018-02-02T17:48:18.847Z,13.60
2018-02-02T17:50:46.351Z,14.10
2018-02-02T17:53:13.960Z,11.27
2018-02-02T17:55:41.477Z,18.30
2018-02-02T17:58:08.944Z,18.90
2018-02-02T18:00:40.940Z,15.13
2018-02-02T18:03:08.594Z,14.80
2018-02-02T18:05:36.123Z,17.00
2018-02-02T18:08:03.682Z,18.37
2018-02-02T18:10:31.238Z,14.27
2018-02-02T18:12:58.851Z,14.10
2018-02-02T18:15:27.110Z,13.60
2018-02-02T18:17:54.672Z,10.70
2018-02-02T18:20:22.143Z,16.43
2018-02-02T18:22:49.682Z,16.47
2018-02-02T18:25:17.262Z,13.83
2018-02-02T18:27:45.538Z,15.47
2018-02-02T18:30:12.994Z,14.80
2018-02-02T18:32:40.471Z,11.30
2018-02-02T18:35:08.701Z,15.70
2018-02-02T18:37:36.182Z,14.67
2018-02-02T18:40:03.665Z,14.07
2018-02-02T18:42:31.897Z,10.97
2018-02-02T18:44:59.543Z,11.90
2018-02-02T18:47:27.042Z,9.00
2018-02-02T18:49:54.485Z,5.93
2018-02-02T18:52:22.793Z,10.40
2018-02-02T18:54:51.061Z,12.00
2018-02-02T18:57:18.514Z,4.60
2018-02-02T18:59:47.509Z,8.30
2018-02-02T19:02:15.009Z,6.80
2018-02-02T19:04:42.472Z,7.00
2018-02-02T19:07:09.973Z,7.60
2018-02-02T19:09:37.467Z,10.00
2018-02-02T19:12:05.827Z,10.20
2018-02-02T19:14:33.301Z,11.27
2018-02-02T19:17:01.527Z,9.60
2018-02-02T19:19:29.008Z,11.63
2018-02-02T19:21:56.457Z,9.30
2018-02-02T19:24:23.936Z,10.87
2018-02-02T19:26:51.436Z,10.03
2018-02-02T19:29:18.896Z,11.40
2018-02-02T19:31:46.355Z,10.07
2018-02-02T19:34:13.829Z,13.43
2018-02-02T19:36:41.321Z,11.63
2018-02-02T19:39:08.871Z,14.60
2018-02-02T19:41:36.388Z,13.67
2018-02-02T19:44:03.886Z,12.03
2018-02-02T19:46:31.374Z,11.30
2018-02-02T19:48:59.753Z,12.97
2018-02-02T19:51:28.034Z,12.77
2018-02-02T19:53:56.356Z,14.13
2018-02-02T19:56:23.844Z,15.40
2018-02-02T19:58:51.327Z,12.30
2018-02-02T20:01:19.575Z,15.83
2018-02-02T20:03:47.051Z,14.43
2018-02-02T20:06:14.519Z,18.20
2018-02-02T20:08:42.783Z,14.90
2018-02-02T20:11:10.351Z,12.20
2018-02-02T20:13:37.813Z,11.23
2018-02-02T20:16:05.273Z,14.13
2018-02-02T20:18:33.543Z,12.93
2018-02-02T20:21:01.011Z,13.57
2018-02-02T20:23:29.245Z,12.93
2018-02-02T20:25:56.738Z,16.57
2018-02-02T20:28:24.188Z,15.03
2018-02-02T20:30:52.990Z,11.67
2018-02-02T20:33:20.510Z,13.60
2018-02-02T20:35:47.993Z,14.70
2018-02-02T20:38:15.454Z,13.37
2018-02-02T20:40:43.704Z,16.57
2018-02-02T20:43:11.296Z,14.47
2018-02-02T20:45:39.585Z,15.70
2018-02-02T20:48:07.087Z,11.83
2018-02-02T20:50:34.579Z,13.73
2018-02-02T20:53:02.263Z,13.23
2018-02-02T20:55:30.535Z,14.00
2018-02-02T20:57:58.747Z,12.40
2018-02-02T21:00:26.230Z,15.03
2018-02-02T21:02:53.703Z,12.53
2018-02-02T21:05:21.360Z,11.00
2018-02-02T21:07:48.815Z,15.87
2018-02-02T21:10:16.293Z,12.63
2018-02-02T21:12:43.789Z,11.00
2018-02-02T21:15:11.271Z,13.33
2018-02-02T21:17:38.780Z,12.10
2018-02-02T21:20:06.312Z,12.60
2018-02-02T21:22:33.867Z,13.07
2018-02-02T21:25:01.361Z,13.00
2018-02-02T21:27:28.865Z,16.67
2018-02-02T21:29:57.071Z,16.60
2018-02-02T21:32:24.527Z,12.77
2018-02-02T21:34:52.020Z,13.73
2018-02-02T21:37:20.275Z,10.03
2018-02-02T21:39:47.707Z,14.30
2018-02-02T21:42:15.191Z,14.23
2018-02-02T21:44:42.675Z,12.47
2018-02-02T21:47:11.057Z,16.90
2018-02-02T21:49:38.579Z,13.67
2018-02-02T21:52:06.087Z,15.40
2018-02-02T21:54:33.732Z,15.00
2018-02-02T21:57:02.057Z,12.47
2018-02-02T21:59:29.515Z,13.70
2018-02-02T22:01:57.025Z,12.53
2018-02-02T22:04:25.236Z,14.30
2018-02-02T22:06:52.755Z,14.93
2018-02-02T22:09:20.308Z,15.60
2018-02-02T22:11:47.788Z,18.00
2018-02-02T22:14:16.046Z,15.10
2018-02-02T22:16:43.688Z,14.07
2018-02-02T22:19:11.175Z,14.10
2018-02-02T22:21:39.390Z,12.53
2018-02-02T22:24:06.948Z,16.73
2018-02-02T22:26:34.431Z,20.70
2018-02-02T22:29:01.936Z,13.70
2018-02-02T22:31:30.193Z,13.43
2018-02-02T22:33:57.674Z,15.53
2018-02-02T22:36:25.882Z,18.20
2018-02-02T22:38:53.397Z,12.23
2018-02-02T22:41:20.876Z,14.77
2018-02-02T22:43:48.357Z,12.33
2018-02-02T22:46:15.811Z,13.23
2018-02-02T22:48:43.272Z,14.27
2018-02-02T22:51:10.724Z,11.67
2018-02-02T22:53:38.221Z,13.00
2018-02-02T22:56:05.703Z,12.90
2018-02-02T22:58:33.921Z,15.67
2018-02-02T23:01:01.391Z,13.50
2018-02-02T23:03:28.920Z,13.47
2018-02-02T23:05:57.189Z,13.97
2018-02-02T23:08:25.399Z,12.47
2018-02-02T23:10:52.884Z,16.77
2018-02-02T23:13:20.351Z,12.47
2018-02-02T23:15:47.869Z,10.97
2018-02-02T23:18:15.351Z,12.70
2018-02-02T23:20:42.794Z,11.60
2018-02-02T23:23:10.309Z,13.17
2018-02-02T23:25:37.770Z,17.80
2018-02-02T23:28:06.023Z,13.40
2018-02-02T23:30:33.562Z,13.97
2018-02-02T23:33:01.050Z,15.27
2018-02-02T23:35:28.493Z,12.97
2018-02-02T23:37:56.836Z,18.00
2018-02-02T23:40:24.259Z,13.93
2018-02-02T23:42:52.487Z,13.57
2018-02-02T23:45:20.200Z,14.63
2018-02-02T23:47:48.468Z,12.70
2018-02-02T23:50:16.747Z,13.17
2018-02-02T23:52:44.190Z,15.03
2018-02-02T23:55:11.673Z,14.60
2018-02-02T23:57:40.032Z,14.70
